Time;durP1;ratioP1;P1;durP2;ratioP2;P2;SDS_P1;SDS_P2;PMS_P1;PMS_P2;Temp;Humidity;BMP_temperature;BMP_pressure;BME280_temperature;BME280_humidity;BME280_pressure;Samples;Min_cycle;Max_cycle;Signal;HPM_P1;HPM_P2
2021/07/13 00:01:10;;;;;;;8.53;4.70;;;19.60;99.90;;;;;;4964985;28;20465;-88
2021/07/13 00:03:37;;;;;;;5.00;4.50;;;19.50;99.90;;;;;;4975122;28;20441;-82
2021/07/13 00:06:04;;;;;;;7.20;4.73;;;19.50;99.90;;;;;;4972033;28;20447;-89
2021/07/13 00:08:31;;;;;;;6.80;4.93;;;19.50;99.90;;;;;;4954520;28;20505;-89
2021/07/13 00:10:58;;;;;;;8.33;5.80;;;19.60;99.90;;;;;;4951016;29;20803;-83
2021/07/13 00:13:24;;;;;;;4.90;4.40;;;19.60;99.90;;;;;;4953732;28;20471;-85
2021/07/13 00:15:53;;;;;;;5.77;5.17;;;19.60;99.90;;;;;;4959283;28;20487;-84
2021/07/13 00:18:20;;;;;;;5.57;4.90;;;19.60;99.90;;;;;;4974998;28;20463;-87
2021/07/13 00:20:47;;;;;;;6.50;5.00;;;19.60;99.90;;;;;;4970995;28;20445;-83
2021/07/13 00:23:14;;;;;;;7.73;5.60;;;19.60;99.90;;;;;;4961326;28;20453;-87
2021/07/13 00:25:41;;;;;;;5.77;5.27;;;19.60;99.90;;;;;;4970528;28;20534;-89
2021/07/13 00:28:08;;;;;;;5.33;4.70;;;19.60;99.90;;;;;;4968145;28;20479;-88
2021/07/13 00:30:35;;;;;;;7.57;5.57;;;19.60;99.90;;;;;;4961127;28;20464;-82
2021/07/13 00:33:03;;;;;;;7.40;5.00;;;19.60;99.90;;;;;;4972154;28;20457;-86
2021/07/13 00:35:30;;;;;;;7.83;5.80;;;19.50;99.90;;;;;;4970998;28;20477;-81
2021/07/13 00:37:57;;;;;;;7.20;6.20;;;19.50;99.90;;;;;;4963071;28;20477;-85
2021/07/13 00:40:24;;;;;;;8.47;6.13;;;19.50;99.90;;;;;;4968497;28;20463;-83
2021/07/13 00:42:53;;;;;;;7.87;6.00;;;19.50;99.90;;;;;;4968905;28;20472;-85
2021/07/13 00:45:22;;;;;;;8.50;6.67;;;19.50;99.90;;;;;;4972677;28;20456;-83
2021/07/13 00:47:50;;;;;;;6.70;6.00;;;19.50;99.90;;;;;;4971407;28;20982;-85
2021/07/13 00:50:20;;;;;;;6.87;6.20;;;19.50;99.90;;;;;;4959519;28;20457;-86
2021/07/13 00:52:48;;;;;;;8.03;5.97;;;19.40;99.90;;;;;;4963709;28;20459;-84
2021/07/13 00:55:16;;;;;;;6.90;6.20;;;19.40;99.90;;;;;;4975173;28;20496;-84
2021/07/13 00:57:43;;;;;;;6.47;5.73;;;19.40;99.90;;;;;;4978723;28;21113;-83
2021/07/13 01:00:13;;;;;;;8.03;6.17;;;19.40;99.90;;;;;;4963023;28;20453;-89
2021/07/13 01:02:40;;;;;;;7.87;6.20;;;19.30;99.90;;;;;;4969920;28;20469;-88
2021/07/13 01:05:11;;;;;;;9.80;6.30;;;19.30;99.90;;;;;;4973972;28;20461;-87
2021/07/13 01:07:51;;;;;;;7.30;6.60;;;19.30;99.90;;;;;;4971780;28;20477;-84
2021/07/13 01:10:25;;;;;;;6.53;5.93;;;19.20;99.90;;;;;;4971344;28;20460;-88
2021/07/13 01:13:03;;;;;;;7.07;6.37;;;19.10;99.90;;;;;;4973954;28;20511;-86
2021/07/13 01:15:33;;;;;;;6.90;5.37;;;19.10;99.90;;;;;;4966744;28;20496;-83
2021/07/13 01:18:04;;;;;;;10.13;6.20;;;19.10;99.90;;;;;;4972977;28;20465;-84
2021/07/13 01:20:55;;;;;;;6.10;5.53;;;19.10;99.90;;;;;;4972535;28;20467;-87
2021/07/13 01:23:37;;;;;;;8.03;6.23;;;19.00;99.90;;;;;;4975973;28;20787;-87
2021/07/13 01:26:08;;;;;;;6.77;6.07;;;19.00;99.90;;;;;;4970778;28;20876;-85
2021/07/13 01:28:43;;;;;;;6.50;5.90;;;19.00;99.90;;;;;;4973535;28;20479;-85
2021/07/13 01:31:12;;;;;;;7.57;6.87;;;18.90;99.90;;;;;;4979971;28;20803;-83
2021/07/13 01:33:42;;;;;;;8.00;6.37;;;18.90;99.90;;;;;;4954623;28;20469;-87
2021/07/13 01:36:15;;;;;;;7.40;5.97;;;18.90;99.90;;;;;;4954384;29;20560;-87
2021/07/13 01:38:44;;;;;;;7.70;6.23;;;18.90;99.90;;;;;;4954272;29;20461;-84
2021/07/13 01:41:15;;;;;;;6.90;6.20;;;18.80;99.90;;;;;;4962746;28;20457;-85
2021/07/13 01:43:46;;;;;;;9.13;7.30;;;18.80;99.90;;;;;;4975881;28;20441;-85
2021/07/13 01:46:14;;;;;;;7.17;6.57;;;18.70;99.90;;;;;;4973805;28;20797;-83
2021/07/13 01:48:43;;;;;;;7.73;7.03;;;18.70;99.90;;;;;;4968176;28;20480;-85
2021/07/13 01:51:11;;;;;;;7.07;6.37;;;18.60;99.90;;;;;;4970874;28;20455;-88
2021/07/13 01:53:39;;;;;;;7.40;6.43;;;18.60;99.90;;;;;;4981546;28;20433;-83
2021/07/13 01:56:08;;;;;;;7.70;6.90;;;18.60;99.90;;;;;;4987642;28;20846;-83
2021/07/13 01:58:37;;;;;;;7.87;7.07;;;18.60;99.90;;;;;;4964547;28;20480;-84
2021/07/13 02:01:10;;;;;;;7.47;6.77;;;18.50;99.90;;;;;;4965946;28;20830;-81
2021/07/13 02:03:38;;;;;;;7.43;6.70;;;18.50;99.90;;;;;;4971015;28;20494;-84
2021/07/13 02:06:06;;;;;;;7.10;6.40;;;18.50;99.90;;;;;;4978137;28;20440;-82
2021/07/13 02:08:38;;;;;;;6.87;6.17;;;18.50;99.90;;;;;;4966832;28;20846;-84
2021/07/13 02:11:06;;;;;;;6.83;6.23;;;18.50;99.90;;;;;;4972818;28;20532;-83
2021/07/13 02:13:34;;;;;;;6.27;5.63;;;18.40;99.90;;;;;;4972504;28;20456;-85
2021/07/13 02:16:01;;;;;;;7.37;6.67;;;18.40;99.90;;;;;;4959409;28;20489;-83
2021/07/13 02:18:29;;;;;;;6.87;5.90;;;18.40;99.90;;;;;;4976252;28;20511;-83
2021/07/13 02:20:56;;;;;;;6.67;5.97;;;18.30;99.90;;;;;;4976686;28;20444;-82
2021/07/13 02:23:23;;;;;;;7.00;5.97;;;18.30;99.90;;;;;;4964804;28;20952;-87
2021/07/13 02:25:55;;;;;;;7.13;6.40;;;18.30;99.90;;;;;;4972160;28;20447;-83
2021/07/13 02:28:29;;;;;;;7.00;6.40;;;18.20;99.90;;;;;;4970929;28;20485;-86
2021/07/13 02:31:02;;;;;;;8.70;7.40;;;18.20;99.90;;;;;;4969136;28;20467;-84
2021/07/13 02:33:37;;;;;;;7.60;6.77;;;18.20;99.90;;;;;;4978568;28;20471;-84
2021/07/13 02:36:09;;;;;;;8.20;7.40;;;18.20;99.90;;;;;;4968979;28;20491;-85
2021/07/13 02:38:36;;;;;;;8.23;7.40;;;18.10;99.90;;;;;;4969550;28;20470;-82
2021/07/13 02:41:03;;;;;;;8.07;6.60;;;18.10;99.90;;;;;;4971958;28;20444;-86
2021/07/13 02:43:31;;;;;;;8.63;7.83;;;18.10;99.90;;;;;;4964324;28;20462;-86
2021/07/13 02:45:59;;;;;;;8.73;7.57;;;18.10;99.90;;;;;;4962591;28;20475;-87
2021/07/13 02:48:27;;;;;;;8.80;7.47;;;18.00;99.90;;;;;;4972993;28;20484;-85
2021/07/13 02:50:58;;;;;;;9.17;7.50;;;18.00;99.90;;;;;;4971410;28;20929;-87
2021/07/13 02:53:27;;;;;;;7.50;6.80;;;17.90;99.90;;;;;;4970112;28;20461;-84
2021/07/13 02:55:55;;;;;;;8.73;6.47;;;17.90;99.90;;;;;;4972105;28;20483;-87
2021/07/13 02:58:23;;;;;;;9.00;8.10;;;17.90;99.90;;;;;;4970924;28;20459;-84
2021/07/13 03:00:51;;;;;;;9.87;8.30;;;17.80;99.90;;;;;;4969244;28;20459;-86
2021/07/13 03:03:22;;;;;;;9.33;7.53;;;17.80;99.90;;;;;;4969411;28;20789;-87
2021/07/13 03:05:51;;;;;;;8.90;8.00;;;17.80;99.90;;;;;;4964900;28;20611;-86
2021/07/13 03:08:23;;;;;;;9.60;8.60;;;17.80;99.90;;;;;;4971759;28;20792;-86
2021/07/13 03:10:51;;;;;;;9.00;7.90;;;17.80;99.90;;;;;;4965853;28;20464;-83
2021/07/13 03:13:22;;;;;;;11.30;8.50;;;17.70;99.90;;;;;;4964942;28;20441;-85
2021/07/13 03:15:49;;;;;;;12.63;9.60;;;17.70;99.90;;;;;;4971972;28;20810;-86
2021/07/13 03:18:16;;;;;;;16.57;10.10;;;17.70;99.90;;;;;;4972884;28;20446;-84
2021/07/13 03:20:44;;;;;;;13.50;9.80;;;17.70;99.90;;;;;;4973298;28;20459;-87
2021/07/13 03:23:11;;;;;;;11.97;8.87;;;17.70;99.90;;;;;;4966864;28;20432;-83
2021/07/13 03:25:41;;;;;;;8.83;7.93;;;17.60;99.90;;;;;;4972078;28;20439;-82
2021/07/13 03:34:36;;;;;;;9.33;8.30;;;17.60;99.90;;;;;;4969642;28;20461;-84
2021/07/13 03:37:03;;;;;;;13.47;9.60;;;17.50;99.90;;;;;;4989488;28;20576;-83
2021/07/13 03:39:31;;;;;;;12.70;9.60;;;17.50;99.90;;;;;;4991264;28;20849;-82
2021/07/13 03:42:01;;;;;;;8.90;8.00;;;17.50;99.90;;;;;;4994009;28;20466;-84
2021/07/13 03:44:28;;;;;;;14.37;9.23;;;17.50;99.90;;;;;;4984001;28;20464;-82
2021/07/13 03:46:55;;;;;;;9.87;8.83;;;17.50;99.90;;;;;;4989586;28;20412;-81
2021/07/13 03:49:25;;;;;;;10.00;9.00;;;17.50;99.90;;;;;;4991138;28;20464;-82
2021/07/13 03:51:52;;;;;;;10.20;9.20;;;17.50;99.90;;;;;;4988225;28;20437;-83
2021/07/13 03:54:21;;;;;;;9.87;8.90;;;17.50;99.90;;;;;;4991802;28;20451;-83
2021/07/13 03:56:49;;;;;;;10.47;8.83;;;17.50;99.90;;;;;;4989929;28;20487;-82
2021/07/13 03:59:18;;;;;;;11.37;9.27;;;17.40;99.90;;;;;;4993678;28;20899;-82
2021/07/13 04:01:45;;;;;;;11.73;10.63;;;17.50;99.90;;;;;;4991901;28;20436;-82
2021/07/13 04:04:12;;;;;;;12.17;10.80;;;17.50;99.90;;;;;;4989183;28;20477;-83
2021/07/13 04:06:39;;;;;;;11.73;10.40;;;17.50;99.90;;;;;;4988656;28;20446;-83
2021/07/13 04:09:07;;;;;;;15.17;11.40;;;17.50;99.90;;;;;;4990260;28;20473;-81
2021/07/13 04:11:34;;;;;;;12.37;10.47;;;17.50;99.90;;;;;;4993906;28;20991;-81
2021/07/13 04:14:02;;;;;;;16.20;11.90;;;17.50;99.90;;;;;;4991131;28;20541;-82
2021/07/13 04:16:30;;;;;;;13.20;11.80;;;17.50;99.90;;;;;;4978882;28;20850;-80
2021/07/13 04:18:57;;;;;;;15.00;11.53;;;17.50;99.90;;;;;;4979831;28;20522;-82
2021/07/13 04:21:24;;;;;;;12.20;10.80;;;17.50;99.90;;;;;;4987691;28;20449;-83
2021/07/13 04:23:51;;;;;;;12.93;10.67;;;17.50;99.90;;;;;;4991192;28;20444;-80
2021/07/13 04:26:18;;;;;;;18.50;11.63;;;17.50;99.90;;;;;;4983671;28;20475;-83
2021/07/13 04:28:45;;;;;;;17.20;12.70;;;17.50;99.90;;;;;;4984774;28;20481;-82
2021/07/13 04:31:12;;;;;;;16.17;11.70;;;17.50;99.90;;;;;;4982878;28;20998;-82
2021/07/13 04:33:40;;;;;;;15.40;12.60;;;17.50;99.90;;;;;;4988959;28;20421;-82
2021/07/13 04:36:07;;;;;;;17.87;12.30;;;17.50;99.90;;;;;;4987943;28;20443;-82
2021/07/13 04:38:34;;;;;;;16.27;12.47;;;17.50;99.90;;;;;;5005700;28;20478;-82
2021/07/13 04:41:01;;;;;;;18.97;13.57;;;17.50;99.90;;;;;;4990754;28;20448;-82
2021/07/13 04:43:29;;;;;;;17.27;13.13;;;17.50;99.90;;;;;;4982649;28;20805;-83
2021/07/13 04:45:56;;;;;;;18.63;13.57;;;17.50;99.90;;;;;;4990727;28;20486;-83
2021/07/13 04:48:23;;;;;;;17.27;12.83;;;17.50;99.90;;;;;;4988586;28;20430;-83
2021/07/13 04:50:51;;;;;;;15.30;12.47;;;17.50;99.90;;;;;;4988780;28;20457;-83
2021/07/13 04:53:18;;;;;;;17.60;12.70;;;17.50;99.90;;;;;;4990597;28;20418;-82
2021/07/13 04:55:45;;;;;;;18.43;14.30;;;17.50;99.90;;;;;;4983284;28;20430;-80
2021/07/13 04:58:12;;;;;;;27.60;15.67;;;17.50;99.90;;;;;;4984852;28;20487;-85
2021/07/13 05:00:39;;;;;;;18.17;13.70;;;17.50;99.90;;;;;;4975131;28;20449;-83
2021/07/13 05:03:06;;;;;;;23.67;15.00;;;17.50;99.90;;;;;;4983815;28;20468;-82
2021/07/13 05:05:33;;;;;;;20.33;13.60;;;17.50;99.90;;;;;;4989181;28;20487;-83
2021/07/13 05:08:01;;;;;;;24.77;15.60;;;17.50;99.90;;;;;;4988094;28;20456;-85
2021/07/13 05:10:28;;;;;;;20.60;14.57;;;17.50;99.90;;;;;;4985541;28;20441;-84
2021/07/13 05:12:55;;;;;;;25.10;15.83;;;17.50;99.90;;;;;;4990379;28;20527;-86
2021/07/13 05:15:22;;;;;;;21.27;14.70;;;17.50;99.90;;;;;;4977003;28;20436;-86
2021/07/13 05:17:48;;;;;;;20.23;15.23;;;17.50;99.90;;;;;;4986590;28;20507;-85
2021/07/13 05:20:15;;;;;;;20.30;15.80;;;17.50;99.90;;;;;;4990315;28;20474;-84
2021/07/13 05:22:43;;;;;;;19.70;15.27;;;17.50;99.90;;;;;;4989456;28;20463;-85
2021/07/13 05:25:14;;;;;;;19.33;15.13;;;17.50;99.90;;;;;;4990949;28;20425;-84
2021/07/13 05:27:42;;;;;;;22.60;15.00;;;17.50;99.90;;;;;;5002567;28;20462;-86
2021/07/13 05:30:12;;;;;;;21.33;13.57;;;17.50;99.90;;;;;;4982687;28;21006;-83
2021/07/13 05:32:40;;;;;;;17.17;14.23;;;17.50;99.90;;;;;;4988026;28;20453;-85
2021/07/13 05:35:08;;;;;;;23.60;14.80;;;17.50;99.90;;;;;;4988294;28;20443;-84
2021/07/13 05:37:35;;;;;;;24.50;16.33;;;17.50;99.90;;;;;;4977104;28;20472;-83
2021/07/13 05:40:05;;;;;;;25.13;15.63;;;17.50;99.90;;;;;;4971066;28;20447;-86
2021/07/13 05:42:33;;;;;;;25.53;15.70;;;17.50;99.90;;;;;;4988016;28;20447;-84
2021/07/13 05:45:01;;;;;;;30.53;18.07;;;17.50;99.90;;;;;;4985953;28;20466;-85
2021/07/13 05:47:28;;;;;;;35.53;17.37;;;17.20;99.90;;;;;;5010847;28;20992;-83
2021/07/13 05:49:55;;;;;;;26.60;17.57;;;17.60;99.90;;;;;;4993883;28;20446;-84
2021/07/13 05:52:22;;;;;;;24.30;15.90;;;17.60;99.90;;;;;;4994676;28;20478;-84
2021/07/13 05:54:49;;;;;;;26.57;16.50;;;17.60;99.90;;;;;;4991769;28;20442;-84
2021/07/13 05:57:16;;;;;;;27.43;17.67;;;17.60;99.90;;;;;;4984849;28;20977;-84
2021/07/13 05:59:44;;;;;;;28.90;17.63;;;17.60;99.90;;;;;;4993998;28;20493;-85
2021/07/13 06:02:11;;;;;;;29.60;17.90;;;17.60;99.90;;;;;;4992388;28;20448;-83
2021/07/13 06:04:38;;;;;;;29.53;17.27;;;17.70;99.90;;;;;;4987592;28;20458;-84
2021/07/13 06:07:05;;;;;;;33.67;19.73;;;17.70;99.90;;;;;;4995837;28;20458;-84
2021/07/13 06:09:32;;;;;;;31.10;19.30;;;17.70;99.90;;;;;;4990118;28;20828;-84
2021/07/13 06:11:59;;;;;;;24.77;16.77;;;17.70;99.90;;;;;;4979383;28;20464;-84
2021/07/13 06:14:26;;;;;;;28.40;17.40;;;17.70;99.90;;;;;;5007955;28;20455;-85
2021/07/13 06:16:55;;;;;;;28.33;18.50;;;17.70;99.90;;;;;;4989443;28;20497;-84
2021/07/13 06:19:22;;;;;;;27.10;17.60;;;17.70;99.90;;;;;;4992595;28;20447;-83
2021/07/13 06:21:49;;;;;;;31.67;19.20;;;17.70;99.90;;;;;;4988502;28;20457;-83
2021/07/13 06:24:16;;;;;;;27.93;18.57;;;17.70;99.90;;;;;;4990627;28;20451;-85
2021/07/13 06:26:43;;;;;;;26.13;17.17;;;17.70;99.90;;;;;;4992415;28;20449;-85
2021/07/13 06:29:09;;;;;;;29.10;17.30;;;17.70;99.90;;;;;;4983128;28;20487;-82
2021/07/13 06:31:36;;;;;;;31.80;19.00;;;17.70;99.90;;;;;;4991787;28;20450;-82
2021/07/13 06:34:05;;;;;;;31.77;17.93;;;17.70;99.90;;;;;;4991116;28;20439;-83
2021/07/13 06:36:32;;;;;;;28.90;19.10;;;17.70;99.90;;;;;;4984388;28;20460;-82
2021/07/13 06:38:59;;;;;;;33.20;18.50;;;17.70;99.90;;;;;;5000612;28;20652;-82
2021/07/13 06:41:26;;;;;;;26.43;17.00;;;17.70;99.90;;;;;;4992685;28;21131;-83
2021/07/13 06:43:53;;;;;;;27.43;16.27;;;17.70;99.90;;;;;;4986106;28;20462;-83
2021/07/13 06:46:20;;;;;;;25.83;17.60;;;17.70;99.90;;;;;;4991234;28;20447;-84
2021/07/13 06:48:46;;;;;;;25.93;16.40;;;17.70;99.90;;;;;;4989168;28;20509;-82
2021/07/13 06:51:15;;;;;;;26.90;17.70;;;17.70;99.90;;;;;;4979040;28;20459;-83
2021/07/13 06:53:42;;;;;;;27.83;17.77;;;17.80;99.90;;;;;;4991308;28;20447;-84
2021/07/13 06:56:09;;;;;;;31.67;18.27;;;17.80;99.90;;;;;;4992472;28;20446;-84
2021/07/13 06:58:36;;;;;;;26.13;17.00;;;17.80;99.90;;;;;;4982507;28;20857;-83
2021/07/13 07:01:03;;;;;;;26.73;17.27;;;17.70;99.90;;;;;;4990416;28;20418;-84
2021/07/13 07:03:30;;;;;;;26.60;17.43;;;17.80;99.90;;;;;;4989145;28;20455;-83
2021/07/13 07:05:57;;;;;;;29.27;18.40;;;17.80;99.90;;;;;;4991800;28;20451;-82
2021/07/13 07:08:25;;;;;;;26.53;17.30;;;17.80;99.90;;;;;;4991065;28;20520;-84
2021/07/13 07:10:52;;;;;;;31.10;17.20;;;17.80;99.90;;;;;;4978998;28;20459;-86
2021/07/13 07:13:19;;;;;;;29.30;18.27;;;17.80;99.90;;;;;;4983215;28;20566;-85
2021/07/13 07:15:46;;;;;;;35.50;17.80;;;17.80;99.90;;;;;;4987733;28;20460;-86
2021/07/13 07:18:13;;;;;;;22.07;14.70;;;17.80;99.90;;;;;;4977639;28;20489;-89
2021/07/13 07:20:40;;;;;;;30.53;16.03;;;17.80;99.90;;;;;;4981454;28;20460;-86
2021/07/13 07:23:07;;;;;;;27.30;16.10;;;17.90;99.90;;;;;;4991200;28;20450;-84
2021/07/13 07:25:36;;;;;;;27.47;17.10;;;17.90;99.90;;;;;;4986494;28;20449;-83
2021/07/13 07:28:04;;;;;;;27.17;17.07;;;17.90;99.90;;;;;;4990663;28;20496;-87
2021/07/13 07:30:32;;;;;;;35.63;18.10;;;17.90;99.90;;;;;;4988336;28;20561;-83
2021/07/13 07:32:59;;;;;;;28.07;17.00;;;17.90;99.90;;;;;;4978727;28;20459;-86
2021/07/13 07:35:29;;;;;;;26.47;16.63;;;17.90;99.90;;;;;;4986818;28;20507;-84
2021/07/13 07:47:17;;;;;;;25.63;17.47;;;17.90;99.90;;;;;;4938680;28;20895;-84
2021/07/13 07:50:27;;;;;;;30.70;17.60;;;17.90;99.90;;;;;;4930290;29;20515;-80
2021/07/13 07:52:55;;;;;;;27.13;16.23;;;18.00;99.90;;;;;;4931599;29;20429;-84
2021/07/13 07:55:25;;;;;;;29.07;17.00;;;17.90;99.90;;;;;;4926086;29;20476;-81
2021/07/13 07:57:52;;;;;;;29.60;18.03;;;17.90;99.90;;;;;;4935608;29;20851;-80
2021/07/13 08:00:20;;;;;;;26.07;17.67;;;18.00;99.90;;;;;;4915660;29;20559;-82
2021/07/13 08:02:48;;;;;;;31.73;18.90;;;18.20;99.90;;;;;;4931731;29;20515;-82
2021/07/13 08:05:16;;;;;;;27.93;18.70;;;18.00;99.90;;;;;;4931733;29;20462;-82
2021/07/13 08:07:43;;;;;;;28.50;18.37;;;18.00;99.90;;;;;;4926685;29;20457;-81
2021/07/13 08:10:13;;;;;;;29.27;19.60;;;18.00;99.90;;;;;;4933188;29;20451;-83
2021/07/13 08:12:42;;;;;;;24.23;19.17;;;18.00;99.90;;;;;;4928046;29;20447;-81
2021/07/13 08:15:10;;;;;;;28.40;18.30;;;18.00;99.90;;;;;;4911283;29;20465;-83
2021/07/13 08:17:38;;;;;;;28.80;19.37;;;18.00;99.90;;;;;;4921833;29;20457;-82
2021/07/13 08:20:09;;;;;;;24.50;18.00;;;18.00;99.90;;;;;;4934136;29;20504;-82
2021/07/13 08:22:36;;;;;;;28.90;17.03;;;18.00;99.90;;;;;;4916202;29;20473;-83
2021/07/13 08:25:04;;;;;;;27.43;18.67;;;18.00;99.90;;;;;;4935427;29;20449;-81
2021/07/13 08:27:31;;;;;;;29.57;18.10;;;18.00;99.90;;;;;;4932925;29;20466;-82
2021/07/13 08:29:58;;;;;;;26.23;17.27;;;18.10;99.90;;;;;;4923984;29;21469;-82
2021/07/13 08:32:25;;;;;;;25.03;17.63;;;18.10;99.90;;;;;;4933037;29;20545;-81
2021/07/13 08:34:52;;;;;;;24.40;17.97;;;18.10;99.90;;;;;;4916427;29;20459;-81
2021/07/13 08:37:21;;;;;;;21.37;16.53;;;18.10;99.90;;;;;;4925382;29;20476;-81
2021/07/13 08:39:49;;;;;;;21.77;16.60;;;18.10;99.90;;;;;;4935207;29;20497;-81
2021/07/13 08:42:16;;;;;;;26.43;17.57;;;18.20;99.90;;;;;;4928864;29;20505;-80
2021/07/13 08:44:43;;;;;;;29.73;17.40;;;18.10;99.90;;;;;;4902756;29;20566;-80
2021/07/13 08:47:15;;;;;;;31.33;18.90;;;18.20;99.90;;;;;;4922980;29;20800;-81
2021/07/13 08:49:43;;;;;;;25.77;17.83;;;18.20;99.90;;;;;;4932893;29;20450;-82
2021/07/13 08:52:10;;;;;;;26.30;18.60;;;18.20;99.90;;;;;;4914978;29;20445;-80
2021/07/13 08:54:38;;;;;;;23.80;18.23;;;18.30;99.90;;;;;;4919589;29;20831;-82
2021/07/13 08:57:05;;;;;;;27.03;19.50;;;18.30;99.90;;;;;;4929998;29;20442;-82
2021/07/13 08:59:33;;;;;;;26.63;17.70;;;18.30;99.90;;;;;;4932273;29;20515;-83
2021/07/13 09:02:00;;;;;;;29.23;18.43;;;18.30;99.90;;;;;;4922561;29;20468;-82
2021/07/13 09:04:34;;;;;;;27.60;18.77;;;18.30;99.90;;;;;;4928644;29;20463;-81
2021/07/13 09:07:06;;;;;;;28.00;18.97;;;18.40;99.90;;;;;;4922451;28;20939;-80
2021/07/13 09:09:35;;;;;;;35.23;20.77;;;18.40;99.90;;;;;;4931044;28;20953;-81
2021/07/13 09:12:15;;;;;;;28.47;18.43;;;18.50;99.90;;;;;;4908913;29;20545;-82
2021/07/13 09:14:57;;;;;;;32.00;19.83;;;18.50;99.90;;;;;;4915685;29;20457;-81
2021/07/13 09:17:30;;;;;;;29.53;20.47;;;18.50;99.90;;;;;;4914712;29;20568;-80
2021/07/13 09:20:00;;;;;;;30.70;20.30;;;18.50;99.90;;;;;;4903255;29;21020;-80
2021/07/13 09:22:27;;;;;;;27.63;20.37;;;18.50;99.90;;;;;;4924704;29;20477;-82
2021/07/13 09:24:54;;;;;;;32.90;21.33;;;18.50;99.90;;;;;;4930450;29;20816;-81
2021/07/13 09:27:23;;;;;;;32.00;22.03;;;18.60;99.90;;;;;;4928086;29;20443;-80
2021/07/13 09:29:53;;;;;;;29.00;21.47;;;18.60;99.90;;;;;;4922805;29;20517;-82
2021/07/13 09:32:25;;;;;;;29.53;20.53;;;18.70;99.90;;;;;;4916105;29;20482;-82
2021/07/13 09:34:54;;;;;;;34.57;21.67;;;18.70;99.90;;;;;;4933025;29;20454;-82
2021/07/13 09:37:24;;;;;;;26.73;18.30;;;18.80;99.90;;;;;;4923094;29;20462;-82
2021/07/13 09:40:08;;;;;;;26.67;19.17;;;18.80;99.90;;;;;;4909469;29;21052;-81
2021/07/13 09:42:38;;;;;;;27.37;19.70;;;18.90;99.90;;;;;;4894548;29;20460;-83
2021/07/13 09:45:22;;;;;;;30.33;20.67;;;19.00;99.90;;;;;;4910856;29;20447;-81
2021/07/13 09:47:51;;;;;;;30.80;21.13;;;19.00;99.90;;;;;;4912672;29;20872;-80
2021/07/13 09:50:39;;;;;;;29.70;21.43;;;19.10;99.90;;;;;;4888604;29;20467;-83
2021/07/13 09:53:07;;;;;;;32.30;21.17;;;19.20;99.90;;;;;;4899764;29;20538;-83
2021/07/13 09:55:34;;;;;;;28.30;22.40;;;19.30;99.90;;;;;;4890174;29;20942;-81
2021/07/13 09:58:13;;;;;;;29.70;22.13;;;19.40;99.90;;;;;;4904829;29;20848;-84
2021/07/13 10:00:40;;;;;;;28.33;21.90;;;19.50;99.90;;;;;;4882984;29;20447;-81
2021/07/13 10:03:08;;;;;;;28.57;22.13;;;19.60;99.90;;;;;;4910859;29;20921;-81
2021/07/13 10:05:36;;;;;;;26.00;22.77;;;19.70;99.90;;;;;;4893341;29;20476;-82
2021/07/13 10:08:04;;;;;;;30.53;21.60;;;19.80;99.90;;;;;;4902509;29;20460;-81
2021/07/13 10:10:31;;;;;;;24.80;21.97;;;19.90;99.90;;;;;;4904966;29;20953;-81
2021/07/13 10:12:59;;;;;;;23.27;20.57;;;20.00;99.90;;;;;;4912993;29;20455;-82
2021/07/13 10:15:28;;;;;;;31.70;22.33;;;20.10;99.90;;;;;;4908975;29;20460;-82
2021/07/13 10:17:55;;;;;;;28.93;20.93;;;20.10;99.90;;;;;;4888151;29;20936;-82
2021/07/13 10:20:24;;;;;;;24.40;20.57;;;20.20;99.90;;;;;;4894133;29;20462;-81
2021/07/13 10:22:54;;;;;;;27.20;19.40;;;20.20;99.90;;;;;;4896826;29;20455;-85
2021/07/13 10:25:35;;;;;;;22.30;19.90;;;20.10;99.90;;;;;;4906989;29;20464;-86
2021/07/13 10:28:03;;;;;;;19.30;17.20;;;20.10;99.90;;;;;;4900705;29;20463;-81
2021/07/13 10:30:42;;;;;;;23.53;19.20;;;20.10;99.90;;;;;;4907663;29;20464;-81
2021/07/13 10:33:28;;;;;;;23.57;20.50;;;20.10;99.90;;;;;;4912646;29;20447;-83
2021/07/13 10:35:57;;;;;;;24.67;21.10;;;20.10;99.90;;;;;;4906733;29;20474;-81
2021/07/13 10:38:24;;;;;;;23.47;19.23;;;20.10;99.90;;;;;;4911397;29;20585;-81
2021/07/13 10:40:54;;;;;;;24.60;19.20;;;20.10;99.90;;;;;;4938424;28;20462;-80
2021/07/13 10:43:22;;;;;;;23.67;19.30;;;20.10;99.90;;;;;;4922840;29;20972;-81
2021/07/13 10:46:06;;;;;;;22.20;18.17;;;20.10;99.90;;;;;;4913685;29;20485;-81
2021/07/13 10:48:34;;;;;;;21.90;16.97;;;20.10;99.90;;;;;;4935025;29;20462;-84
2021/07/13 10:51:06;;;;;;;19.87;17.73;;;20.10;99.90;;;;;;4922448;29;20561;-84
2021/07/13 10:53:38;;;;;;;20.13;16.57;;;20.10;99.90;;;;;;4905395;29;21016;-83
2021/07/13 10:56:09;;;;;;;20.30;17.40;;;20.10;99.90;;;;;;4923542;29;20494;-84
2021/07/13 10:58:41;;;;;;;19.87;17.77;;;20.10;99.90;;;;;;4919965;29;20580;-81
2021/07/13 11:01:11;;;;;;;20.60;16.63;;;20.10;99.90;;;;;;4936983;29;20450;-81
2021/07/13 11:03:55;;;;;;;21.40;17.87;;;20.00;99.90;;;;;;4928592;29;21291;-82
2021/07/13 11:06:38;;;;;;;20.93;18.63;;;19.90;99.90;;;;;;4918155;29;20434;-83
2021/07/13 11:09:18;;;;;;;24.13;19.50;;;20.00;99.90;;;;;;4928520;29;20482;-84
2021/07/13 11:11:45;;;;;;;26.73;18.13;;;19.90;99.90;;;;;;4906493;29;20486;-81
2021/07/13 11:14:14;;;;;;;19.33;17.20;;;19.90;99.90;;;;;;4922882;29;20470;-81
2021/07/13 11:16:43;;;;;;;22.83;19.27;;;19.90;99.90;;;;;;4923083;29;20526;-81
2021/07/13 11:19:15;;;;;;;19.40;17.40;;;19.80;99.90;;;;;;4924259;29;20809;-81
2021/07/13 11:21:44;;;;;;;20.13;17.70;;;19.80;99.90;;;;;;4923543;29;20458;-82
2021/07/13 11:24:13;;;;;;;19.77;17.30;;;19.80;99.90;;;;;;4922430;29;20533;-81
2021/07/13 11:26:42;;;;;;;23.97;16.37;;;19.80;99.90;;;;;;4901478;29;20451;-81
2021/07/13 11:29:17;;;;;;;19.23;17.20;;;19.80;99.90;;;;;;4932571;29;20468;-81
2021/07/13 11:31:49;;;;;;;18.13;16.13;;;19.90;99.90;;;;;;4911065;29;20468;-81
2021/07/13 11:34:18;;;;;;;21.47;16.97;;;19.90;99.90;;;;;;4934261;29;20452;-82
2021/07/13 11:36:47;;;;;;;18.60;16.27;;;19.90;99.90;;;;;;4933124;29;20554;-81
2021/07/13 11:39:15;;;;;;;21.00;18.43;;;19.90;99.90;;;;;;4906875;29;20559;-82
2021/07/13 11:41:44;;;;;;;18.40;16.33;;;19.90;99.90;;;;;;4905195;29;20864;-81
2021/07/13 11:44:12;;;;;;;16.60;14.73;;;19.90;99.90;;;;;;4931494;29;20465;-81
2021/07/13 11:46:41;;;;;;;13.70;12.40;;;19.90;99.90;;;;;;4897436;29;20819;-81
2021/07/13 11:49:10;;;;;;;13.10;11.80;;;19.90;99.90;;;;;;4911648;29;20872;-81
2021/07/13 11:51:40;;;;;;;12.60;11.30;;;19.90;99.90;;;;;;4933659;29;20452;-81
2021/07/13 11:54:09;;;;;;;12.10;10.83;;;19.90;99.90;;;;;;4932426;29;20463;-82
2021/07/13 11:56:38;;;;;;;11.67;10.00;;;19.90;99.90;;;;;;4916379;29;20804;-81
2021/07/13 11:59:05;;;;;;;13.80;12.43;;;19.90;99.90;;;;;;4909335;29;20503;-83
2021/07/13 12:01:34;;;;;;;14.57;11.70;;;19.80;99.90;;;;;;4925324;29;20466;-81
2021/07/13 12:04:03;;;;;;;16.87;13.60;;;19.80;99.90;;;;;;4916796;29;21015;-81
2021/07/13 12:06:32;;;;;;;14.23;12.60;;;19.80;99.90;;;;;;4931444;29;20461;-80
2021/07/13 12:09:00;;;;;;;15.47;13.80;;;19.70;99.90;;;;;;4927683;29;21026;-83
2021/07/13 12:11:29;;;;;;;18.70;14.17;;;19.70;99.90;;;;;;4909300;29;20469;-81
2021/07/13 12:13:57;;;;;;;18.90;15.10;;;19.80;99.90;;;;;;4931613;29;20451;-82
2021/07/13 12:16:28;;;;;;;22.90;16.60;;;19.70;99.90;;;;;;4932551;29;20457;-82
2021/07/13 12:18:58;;;;;;;23.63;16.87;;;19.80;99.90;;;;;;4925821;29;20478;-83
2021/07/13 12:21:25;;;;;;;24.47;18.23;;;19.80;99.90;;;;;;4909626;29;20466;-82
2021/07/13 12:23:55;;;;;;;24.13;18.47;;;19.80;99.90;;;;;;4914927;29;20911;-82
2021/07/13 12:26:25;;;;;;;26.70;20.77;;;19.80;99.90;;;;;;4909264;29;20454;-82
2021/07/13 12:29:08;;;;;;;26.60;20.30;;;19.90;99.90;;;;;;4909454;29;20482;-83
2021/07/13 12:31:37;;;;;;;26.03;19.60;;;19.90;99.90;;;;;;4930414;29;20473;-82
2021/07/13 12:34:06;;;;;;;25.70;19.37;;;19.90;99.90;;;;;;4928827;29;21148;-83
2021/07/13 12:36:35;;;;;;;23.50;19.13;;;20.00;99.90;;;;;;4906160;29;20481;-82
2021/07/13 12:39:16;;;;;;;24.07;19.33;;;20.10;99.90;;;;;;4932255;29;20494;-82
2021/07/13 12:41:45;;;;;;;20.97;17.10;;;20.10;99.90;;;;;;4898078;29;20493;-81
2021/07/13 12:44:35;;;;;;;18.83;16.73;;;20.30;99.90;;;;;;4919102;29;20559;-82
2021/07/13 12:47:31;;;;;;;23.10;16.77;;;20.10;99.90;;;;;;4899958;29;20977;-82
2021/07/13 12:50:04;;;;;;;24.77;16.97;;;20.20;99.90;;;;;;4901645;29;20475;-83
2021/07/13 12:52:33;;;;;;;19.13;16.10;;;20.20;99.90;;;;;;4915705;29;20471;-81
2021/07/13 12:55:04;;;;;;;15.03;13.43;;;20.30;99.90;;;;;;4924932;29;21255;-81
2021/07/13 12:57:32;;;;;;;17.70;15.80;;;20.30;99.90;;;;;;4894078;29;20559;-81
2021/07/13 13:00:01;;;;;;;15.87;14.17;;;20.40;99.90;;;;;;4916041;29;20505;-83